createdAt,value
2023-05-08T00:01:37.130Z,100902.25
2023-05-08T00:04:08.240Z,100905.44
2023-05-08T00:06:38.420Z,100905.81
2023-05-08T00:09:08.522Z,100906.19
2023-05-08T00:11:50.335Z,100900.56
2023-05-08T00:14:20.899Z,100898.09
2023-05-08T00:16:51.491Z,100888.00
2023-05-08T00:19:21.640Z,100891.66
2023-05-08T00:21:52.892Z,100890.03
2023-05-08T00:24:22.783Z,100890.03
2023-05-08T00:26:55.078Z,100877.94
2023-05-08T00:29:25.072Z,100884.38
2023-05-08T00:31:55.393Z,100890.03
2023-05-08T00:34:26.100Z,100894.88
2023-05-08T00:36:58.738Z,100884.78
2023-05-08T00:39:29.166Z,100894.03
2023-05-08T00:42:01.410Z,100885.56
2023-05-08T00:44:31.752Z,100893.22
2023-05-08T00:47:02.072Z,100887.59
2023-05-08T00:49:32.571Z,100882.75
2023-05-08T00:52:03.120Z,100881.94
2023-05-08T00:54:33.641Z,100891.22
2023-05-08T00:57:09.244Z,100891.22
2023-05-08T00:59:42.534Z,100881.56
2023-05-08T01:02:13.427Z,100887.59
2023-05-08T01:04:46.036Z,100883.59
2023-05-08T01:07:16.491Z,100884.78
2023-05-08T01:09:46.631Z,100881.13
2023-05-08T01:12:29.631Z,100883.94
2023-05-08T01:15:14.089Z,100878.69
2023-05-08T01:18:03.116Z,100877.03
2023-05-08T01:20:47.346Z,100879.03
2023-05-08T01:24:17.287Z,100871.34
2023-05-08T01:27:39.503Z,100871.69
2023-05-08T01:30:44.555Z,100872.09
2023-05-08T01:33:27.246Z,100882.97
2023-05-08T01:36:14.368Z,100872.91
2023-05-08T01:38:56.634Z,100866.88
2023-05-08T01:41:30.898Z,100878.16
2023-05-08T01:44:15.838Z,100881.38
2023-05-08T01:46:51.637Z,100887.38
2023-05-08T01:49:30.828Z,100881.28
2023-05-08T01:52:09.418Z,100873.19
2023-05-08T01:54:49.484Z,100880.41
2023-05-08T01:57:22.299Z,100875.50
2023-05-08T01:59:55.891Z,100883.50
2023-05-08T02:02:26.657Z,100879.84
2023-05-08T02:04:59.869Z,100881.38
2023-05-08T02:07:31.042Z,100874.00
2023-05-08T02:10:03.833Z,100878.75
2023-05-08T02:12:37.121Z,100877.06
2023-05-08T02:15:10.216Z,100875.72
2023-05-08T02:17:43.861Z,100875.63
2023-05-08T02:20:18.803Z,100884.03
2023-05-08T02:22:54.188Z,100877.84
2023-05-08T02:25:26.149Z,100872.59
2023-05-08T02:27:59.007Z,100874.97
2023-05-08T02:30:30.870Z,100882.16
2023-05-08T02:33:04.816Z,100879.69
2023-05-08T02:35:39.296Z,100883.28
2023-05-08T02:38:12.953Z,100888.47
2023-05-08T02:40:49.898Z,100881.19
2023-05-08T02:43:20.335Z,100894.00
2023-05-08T02:45:59.983Z,100889.56
2023-05-08T02:48:40.178Z,100889.09
2023-05-08T02:51:28.649Z,100898.75
2023-05-08T02:54:10.658Z,100895.47
2023-05-08T02:56:50.642Z,100899.47
2023-05-08T02:59:24.318Z,100899.03
2023-05-08T03:02:06.597Z,100901.84
2023-05-08T03:04:44.167Z,100896.56
2023-05-08T03:07:18.560Z,100907.03
2023-05-08T03:09:57.850Z,100899.38
2023-05-08T03:12:33.362Z,100901.41
2023-05-08T03:15:10.210Z,100900.56
2023-05-08T03:17:45.289Z,100904.59
2023-05-08T03:20:22.108Z,100906.19
2023-05-08T03:22:57.628Z,100907.03
2023-05-08T03:25:29.824Z,100913.47
2023-05-08T03:28:01.808Z,100911.50
2023-05-08T03:30:33.349Z,100909.47
2023-05-08T03:33:07.857Z,100913.13
2023-05-08T03:35:39.323Z,100915.09
2023-05-08T03:38:12.433Z,100911.09
2023-05-08T03:40:42.955Z,100914.75
2023-05-08T03:43:14.590Z,100911.94
2023-05-08T03:45:44.529Z,100921.19
2023-05-08T03:48:16.727Z,100929.66
2023-05-08T03:50:47.855Z,100928.00
2023-05-08T03:53:20.558Z,100928.84
2023-05-08T03:55:51.441Z,100937.28
2023-05-08T03:58:31.210Z,100940.91
2023-05-08T04:01:11.342Z,100938.09
2023-05-08T04:04:03.952Z,100944.09
2023-05-08T04:06:50.197Z,100934.03
2023-05-08T04:09:30.704Z,100940.09
2023-05-08T04:12:10.590Z,100938.09
2023-05-08T04:14:54.865Z,100938.56
2023-05-08T04:17:38.734Z,100936.53
2023-05-08T04:20:14.619Z,100944.63
2023-05-08T04:22:48.874Z,100937.00
2023-05-08T04:25:23.763Z,100947.06
2023-05-08T04:27:56.635Z,100932.63
2023-05-08T04:30:28.278Z,100931.81
2023-05-08T04:33:00.365Z,100936.25
2023-05-08T04:35:30.287Z,100940.34
2023-05-08T04:38:05.938Z,100941.59
2023-05-08T04:40:38.312Z,100935.63
2023-05-08T04:43:08.689Z,100940.88
2023-05-08T04:45:39.010Z,100941.31
2023-05-08T04:48:09.708Z,100942.97
2023-05-08T04:50:40.443Z,100944.59
2023-05-08T04:53:10.881Z,100943.38
2023-05-08T04:55:42.662Z,100947.84
2023-05-08T04:58:13.649Z,100945.47
2023-05-08T05:00:43.474Z,100950.72
2023-05-08T05:03:13.656Z,100958.09
2023-05-08T05:05:43.534Z,100948.09
2023-05-08T05:08:13.563Z,100950.59
2023-05-08T05:10:45.715Z,100956.31
2023-05-08T05:13:15.846Z,100943.94
2023-05-08T05:15:46.108Z,100956.94
2023-05-08T05:18:16.461Z,100948.59
2023-05-08T05:20:46.946Z,100946.66
2023-05-08T05:23:16.693Z,100940.72
2023-05-08T05:25:49.212Z,100947.69
2023-05-08T05:28:19.355Z,100946.97
2023-05-08T05:30:50.694Z,100950.66
2023-05-08T05:33:21.000Z,100953.56
2023-05-08T05:35:51.373Z,100948.78
2023-05-08T05:38:21.753Z,100953.31
2023-05-08T05:40:53.633Z,100945.75
2023-05-08T05:43:23.451Z,100947.81
2023-05-08T05:45:53.653Z,100948.69
2023-05-08T05:48:23.344Z,100942.78
2023-05-08T05:50:53.483Z,100946.47
2023-05-08T05:53:23.553Z,100948.16
2023-05-08T05:55:55.634Z,100951.91
2023-05-08T05:58:25.602Z,100943.88
2023-05-08T06:00:55.652Z,100947.97
2023-05-08T06:03:25.770Z,100945.59
2023-05-08T06:05:56.429Z,100944.41
2023-05-08T06:08:26.672Z,100941.63
2023-05-08T06:10:57.989Z,100940.06
2023-05-08T06:13:28.343Z,100942.94
2023-05-08T06:15:59.418Z,100936.56
2023-05-08T06:18:29.684Z,100939.44
2023-05-08T06:21:00.701Z,100940.31
2023-05-08T06:23:31.412Z,100945.66
2023-05-08T06:26:03.620Z,100940.06
2023-05-08T06:28:33.402Z,100946.19
2023-05-08T06:31:04.065Z,100936.53
2023-05-08T06:33:34.413Z,100942.63
2023-05-08T06:36:06.542Z,100946.31
2023-05-08T06:38:36.851Z,100944.69
2023-05-08T06:41:08.877Z,100947.94
2023-05-08T06:43:38.568Z,100947.16
2023-05-08T06:46:09.106Z,100949.56
2023-05-08T06:48:39.240Z,100956.06
2023-05-08T06:51:09.645Z,100945.97
2023-05-08T06:53:39.843Z,100943.13
2023-05-08T06:56:12.566Z,100946.75
2023-05-08T06:58:42.721Z,100937.47
2023-05-08T07:01:15.455Z,100948.84
2023-05-08T07:03:45.489Z,100946.44
2023-05-08T07:06:15.376Z,100943.72
2023-05-08T07:08:45.932Z,100928.44
2023-05-08T07:11:17.828Z,100936.59
2023-05-08T07:13:48.659Z,100937.47
2023-05-08T07:16:19.596Z,100941.59
2023-05-08T07:18:50.061Z,100939.66
2023-05-08T07:21:21.701Z,100943.34
2023-05-08T07:23:54.350Z,100937.75
2023-05-08T07:26:26.294Z,100948.28
2023-05-08T07:28:56.349Z,100950.75
2023-05-08T07:31:27.562Z,100944.69
2023-05-08T07:33:57.071Z,100947.53
2023-05-08T07:36:27.325Z,100947.13
2023-05-08T07:38:57.472Z,100946.75
2023-05-08T07:41:29.611Z,100944.38
2023-05-08T07:44:00.374Z,100949.25
2023-05-08T07:46:30.481Z,100944.03
2023-05-08T07:49:01.173Z,100946.53
2023-05-08T07:51:32.137Z,100947.41
2023-05-08T07:54:02.559Z,100950.28
2023-05-08T07:56:34.449Z,100944.69
2023-05-08T07:59:04.994Z,100945.97
2023-05-08T08:01:35.010Z,100954.47
2023-05-08T08:04:04.909Z,100953.69
2023-05-08T08:06:35.559Z,100946.47
2023-05-08T08:09:05.945Z,100943.31
2023-05-08T08:11:37.568Z,100946.59
2023-05-08T08:14:08.801Z,100953.13
2023-05-08T08:16:39.276Z,100950.34
2023-05-08T08:19:09.531Z,100950.78
2023-05-08T08:21:44.435Z,100946.38
2023-05-08T08:24:14.396Z,100942.78
2023-05-08T08:26:46.156Z,100940.34
2023-05-08T08:29:16.460Z,100946.88
2023-05-08T08:31:46.777Z,100950.19
2023-05-08T08:34:16.894Z,100954.69
2023-05-08T08:36:47.120Z,100940.22
2023-05-08T08:39:17.211Z,100931.38
2023-05-08T08:41:48.676Z,100937.91
2023-05-08T08:44:18.968Z,100941.22
2023-05-08T08:46:54.971Z,100937.22
2023-05-08T08:49:33.228Z,100940.50
2023-05-08T08:52:09.639Z,100939.69
2023-05-08T08:54:42.840Z,100942.97
2023-05-08T08:57:17.531Z,100944.19
2023-05-08T08:59:48.525Z,100934.50
2023-05-08T09:02:21.229Z,100936.56
2023-05-08T09:04:53.151Z,100930.13
2023-05-08T09:07:24.791Z,100935.00
2023-05-08T09:09:56.617Z,100928.56
2023-05-08T09:12:28.626Z,100924.97
2023-05-08T09:14:59.124Z,100921.31
2023-05-08T09:17:30.027Z,100921.38
2023-05-08T09:20:01.414Z,100929.94
2023-05-08T09:22:33.746Z,100917.03
2023-05-08T09:25:03.896Z,100921.91
2023-05-08T09:27:36.777Z,100913.44
2023-05-08T09:30:08.924Z,100918.34
2023-05-08T09:32:41.635Z,100917.53
2023-05-08T09:35:14.142Z,100913.09
2023-05-08T09:37:45.342Z,100911.88
2023-05-08T09:40:20.197Z,100912.75
2023-05-08T09:42:53.083Z,100910.34
2023-05-08T09:45:36.087Z,100901.44
2023-05-08T09:48:07.036Z,100905.88
2023-05-08T09:50:36.916Z,100901.84
2023-05-08T09:53:07.227Z,100901.44
2023-05-08T09:55:51.260Z,100899.88
2023-05-08T09:58:25.382Z,100899.88
2023-05-08T10:00:55.759Z,100890.13
2023-05-08T10:03:48.890Z,100893.38
2023-05-08T10:06:19.744Z,100896.22
2023-05-08T10:08:50.132Z,100892.19
2023-05-08T10:11:22.954Z,100904.75
2023-05-08T10:13:55.844Z,100895.88
2023-05-08T10:16:27.365Z,100897.09
2023-05-08T10:19:03.433Z,100895.06
2023-05-08T10:21:38.799Z,100904.81
2023-05-08T10:24:17.626Z,100899.16
2023-05-08T10:27:07.761Z,100893.47
2023-05-08T10:29:51.456Z,100901.97
2023-05-08T10:32:24.726Z,100900.78
2023-05-08T10:35:01.231Z,100903.22
2023-05-08T10:37:33.024Z,100894.69
2023-05-08T10:40:04.986Z,100881.78
2023-05-08T10:42:37.170Z,100891.13
2023-05-08T10:45:11.780Z,100879.78
2023-05-08T10:48:05.846Z,100882.63
2023-05-08T10:50:52.572Z,100880.56
2023-05-08T10:53:37.953Z,100868.03
2023-05-08T10:56:08.570Z,100883.84
2023-05-08T10:58:41.030Z,100877.75
2023-05-08T11:01:20.376Z,100868.88
2023-05-08T11:03:56.324Z,100865.63
2023-05-08T11:06:49.519Z,100861.56
2023-05-08T11:09:24.892Z,100866.00
2023-05-08T11:12:21.495Z,100865.63
2023-05-08T11:15:04.433Z,100867.63
2023-05-08T11:17:36.527Z,100856.28
2023-05-08T11:20:08.781Z,100855.91
2023-05-08T11:22:39.726Z,100860.38
2023-05-08T11:25:13.116Z,100861.97
2023-05-08T11:28:14.380Z,100860.38
2023-05-08T11:30:47.160Z,100853.06
2023-05-08T11:33:20.137Z,100847.78
2023-05-08T11:35:57.038Z,100847.00
2023-05-08T11:38:34.497Z,100850.63
2023-05-08T11:41:10.120Z,100843.38
2023-05-08T11:44:21.071Z,100841.31
2023-05-08T11:46:56.168Z,100838.84
2023-05-08T11:49:30.339Z,100841.31
2023-05-08T11:52:05.119Z,100843.75
2023-05-08T11:54:35.580Z,100846.56
2023-05-08T11:57:06.237Z,100846.19
2023-05-08T11:59:39.515Z,100843.38
2023-05-08T12:02:10.746Z,100846.19
2023-05-08T12:04:53.532Z,100853.44
2023-05-08T12:07:24.638Z,100838.84
2023-05-08T12:09:55.159Z,100838.84
2023-05-08T12:12:25.715Z,100834.41
2023-05-08T12:14:57.422Z,100827.94
2023-05-08T12:17:27.512Z,100829.13
2023-05-08T12:20:11.738Z,100823.09
2023-05-08T12:22:42.412Z,100825.84
2023-05-08T12:25:14.460Z,100830.28
2023-05-08T12:27:46.495Z,100827.88
2023-05-08T12:30:19.016Z,100825.81
2023-05-08T12:32:50.662Z,100827.44
2023-05-08T12:35:28.421Z,100827.84
2023-05-08T12:38:04.922Z,100820.91
2023-05-08T12:40:37.317Z,100820.53
2023-05-08T12:43:07.844Z,100808.34
2023-05-08T12:45:41.221Z,100807.94
2023-05-08T12:48:13.207Z,100810.34
2023-05-08T12:50:47.763Z,100806.72
2023-05-08T12:53:22.019Z,100807.13
2023-05-08T12:55:58.027Z,100807.50
2023-05-08T12:58:30.316Z,100805.88
2023-05-08T13:01:15.803Z,100801.81
2023-05-08T13:03:50.743Z,100792.91
2023-05-08T13:06:28.326Z,100796.56
2023-05-08T13:08:58.770Z,100797.34
2023-05-08T13:11:33.581Z,100787.22
2023-05-08T13:14:03.637Z,100786.00
2023-05-08T13:16:44.060Z,100790.03
2023-05-08T13:19:15.065Z,100786.78
2023-05-08T13:21:48.329Z,100788.81
2023-05-08T13:24:19.217Z,100779.88
2023-05-08T13:26:49.623Z,100782.72
2023-05-08T13:29:19.651Z,100786.34
2023-05-08T13:31:49.944Z,100782.69
2023-05-08T13:34:20.318Z,100785.09
2023-05-08T13:36:52.654Z,100787.50
2023-05-08T13:39:22.826Z,100785.88
2023-05-08T13:41:53.290Z,100793.59
2023-05-08T13:44:23.501Z,100796.41
2023-05-08T13:46:54.204Z,100792.31
2023-05-08T13:49:24.683Z,100798.34
2023-05-08T13:51:57.408Z,100790.25
2023-05-08T13:54:28.287Z,100790.25
2023-05-08T13:56:58.464Z,100794.28
2023-05-08T13:59:31.750Z,100786.19
2023-05-08T14:02:03.126Z,100786.97
2023-05-08T14:04:33.490Z,100781.69
2023-05-08T14:07:05.891Z,100784.09
2023-05-08T14:09:36.506Z,100782.06
2023-05-08T14:12:06.704Z,100777.16
2023-05-08T14:14:37.163Z,100777.97
2023-05-08T14:17:08.961Z,100773.88
2023-05-08T14:19:39.218Z,100779.97
2023-05-08T14:22:11.468Z,100776.69
2023-05-08T14:24:42.143Z,100779.09
2023-05-08T14:27:12.524Z,100768.59
2023-05-08T14:29:43.107Z,100771.00
2023-05-08T14:32:12.840Z,100771.41
2023-05-08T14:34:42.760Z,100775.03
2023-05-08T14:37:15.127Z,100768.56
2023-05-08T14:39:45.846Z,100777.44
2023-05-08T14:42:22.957Z,100775.78
2023-05-08T14:44:56.174Z,100781.06
2023-05-08T14:47:26.179Z,100770.94
2023-05-08T14:49:57.101Z,100780.63
2023-05-08T14:52:29.264Z,100770.50
2023-05-08T14:54:59.663Z,100775.75
2023-05-08T14:57:29.291Z,100774.13
2023-05-08T14:59:59.601Z,100776.16
2023-05-08T15:02:29.953Z,100783.81
2023-05-08T15:05:00.560Z,100779.34
2023-05-08T15:07:33.114Z,100778.94
2023-05-08T15:10:03.387Z,100780.16
2023-05-08T15:12:33.242Z,100778.53
2023-05-08T15:15:04.680Z,100774.06
2023-05-08T15:17:36.842Z,100771.56
2023-05-08T15:20:07.939Z,100775.63
2023-05-08T15:22:39.901Z,100776.00
2023-05-08T15:25:12.498Z,100783.69
2023-05-08T15:27:43.679Z,100780.44
2023-05-08T15:30:15.561Z,100790.13
2023-05-08T15:32:46.298Z,100781.22
2023-05-08T15:35:16.629Z,100783.22
2023-05-08T15:37:49.611Z,100783.22
2023-05-08T15:40:19.773Z,100792.50
2023-05-08T15:42:50.235Z,100788.03
2023-05-08T15:45:20.556Z,100794.50
2023-05-08T15:47:50.213Z,100788.41
2023-05-08T15:50:20.538Z,100790.41
2023-05-08T15:52:52.864Z,100790.00
2023-05-08T15:55:23.553Z,100796.03
2023-05-08T15:57:53.947Z,100798.06
2023-05-08T16:00:27.359Z,100796.44
2023-05-08T16:03:00.468Z,100795.19
2023-05-08T16:05:30.702Z,100793.56
2023-05-08T16:08:03.011Z,100796.75
2023-05-08T16:10:33.414Z,100791.50
2023-05-08T16:13:03.697Z,100797.56
2023-05-08T16:15:34.220Z,100803.59
2023-05-08T16:18:04.505Z,100801.59
2023-05-08T16:20:36.246Z,100799.13
2023-05-08T16:23:08.577Z,100806.81
2023-05-08T16:25:38.934Z,100805.97
2023-05-08T16:28:09.230Z,100806.38
2023-05-08T16:30:39.507Z,100810.41
2023-05-08T16:33:09.912Z,100812.44
2023-05-08T16:35:41.336Z,100807.97
2023-05-08T16:38:14.232Z,100818.06
2023-05-08T16:40:45.383Z,100824.06
2023-05-08T16:43:15.329Z,100817.63
2023-05-08T16:45:45.417Z,100817.19
2023-05-08T16:48:15.828Z,100824.88
2023-05-08T16:50:46.211Z,100832.91
2023-05-08T16:53:17.859Z,100827.25
2023-05-08T16:55:48.158Z,100827.63
2023-05-08T16:58:18.534Z,100834.06
2023-05-08T17:00:48.275Z,100840.53
2023-05-08T17:03:18.518Z,100840.53
2023-05-08T17:05:49.135Z,100844.16
2023-05-08T17:08:21.022Z,100848.97
2023-05-08T17:10:51.928Z,100847.34
2023-05-08T17:13:23.991Z,100850.53
2023-05-08T17:15:54.415Z,100849.69
2023-05-08T17:18:24.882Z,100860.19
2023-05-08T17:20:54.561Z,100862.59
2023-05-08T17:23:26.458Z,100858.13
2023-05-08T17:26:00.717Z,100860.16
2023-05-08T17:28:30.697Z,100863.34
2023-05-08T17:31:00.287Z,100862.94
2023-05-08T17:33:30.013Z,100871.44
2023-05-08T17:36:00.572Z,100865.34
2023-05-08T17:38:32.404Z,100876.66
2023-05-08T17:41:02.599Z,100872.97
2023-05-08T17:43:32.746Z,100879.03
2023-05-08T17:46:02.593Z,100884.69
2023-05-08T17:48:32.977Z,100888.72
2023-05-08T17:51:03.822Z,100883.81
2023-05-08T17:53:35.694Z,100888.66
2023-05-08T17:56:05.972Z,100887.03
2023-05-08T17:58:36.327Z,100897.53
2023-05-08T18:01:06.630Z,100889.41
2023-05-08T18:03:36.529Z,100893.44
2023-05-08T18:06:07.176Z,100901.13
2023-05-08T18:08:41.460Z,100891.84
2023-05-08T18:11:19.764Z,100897.84
2023-05-08T18:13:49.760Z,100904.69
2023-05-08T18:16:22.187Z,100905.88
2023-05-08T18:18:52.937Z,100904.25
2023-05-08T18:21:22.600Z,100910.31
2023-05-08T18:23:53.846Z,100906.66
2023-05-08T18:26:24.293Z,100915.16
2023-05-08T18:28:54.719Z,100913.53
2023-05-08T18:31:24.500Z,100921.16
2023-05-08T18:33:54.528Z,100921.56
2023-05-08T18:36:24.278Z,100915.09
2023-05-08T18:38:56.628Z,100921.56
2023-05-08T18:41:26.354Z,100923.13
2023-05-08T18:43:56.788Z,100917.84
2023-05-08T18:46:26.898Z,100915.84
2023-05-08T18:48:56.588Z,100909.75
2023-05-08T18:51:26.539Z,100915.41
2023-05-08T18:53:58.813Z,100914.63
2023-05-08T18:56:29.252Z,100920.63
2023-05-08T18:59:00.415Z,100914.97
2023-05-08T19:01:30.225Z,100920.63
2023-05-08T19:04:01.275Z,100921.00
2023-05-08T19:06:31.856Z,100920.19
2023-05-08T19:09:03.589Z,100923.00
2023-05-08T19:11:33.975Z,100919.78
2023-05-08T19:14:04.483Z,100916.13
2023-05-08T19:16:34.770Z,100916.13
2023-05-08T19:19:05.025Z,100917.69
2023-05-08T19:21:35.628Z,100925.34
2023-05-08T19:24:08.850Z,100927.38
2023-05-08T19:26:39.196Z,100923.28
2023-05-08T19:29:09.671Z,100919.63
2023-05-08T19:31:40.178Z,100927.31
2023-05-08T19:34:10.270Z,100922.84
2023-05-08T19:36:40.688Z,100923.66
2023-05-08T19:39:11.971Z,100922.06
2023-05-08T19:41:43.748Z,100921.22
2023-05-08T19:44:14.377Z,100919.59
2023-05-08T19:46:44.959Z,100920.78
2023-05-08T19:49:16.568Z,100913.94
2023-05-08T19:51:48.672Z,100915.13
2023-05-08T19:54:21.090Z,100909.06
2023-05-08T19:56:51.109Z,100911.06
2023-05-08T19:59:21.501Z,100913.09
2023-05-08T20:01:51.274Z,100913.09
2023-05-08T20:04:21.937Z,100922.75
2023-05-08T20:06:51.782Z,100919.09
2023-05-08T20:09:23.660Z,100920.25
2023-05-08T20:11:55.688Z,100925.09
2023-05-08T20:14:26.051Z,100917.03
2023-05-08T20:16:56.326Z,100917.03
2023-05-08T20:19:26.678Z,100921.03
2023-05-08T20:21:56.628Z,100919.41
2023-05-08T20:24:28.475Z,100925.06
2023-05-08T20:26:58.444Z,100920.59
2023-05-08T20:29:29.066Z,100922.59
2023-05-08T20:31:59.386Z,100916.13
2023-05-08T20:34:30.348Z,100914.50
2023-05-08T20:37:01.311Z,100913.69
2023-05-08T20:39:33.523Z,100915.69
2023-05-08T20:42:03.732Z,100916.09
2023-05-08T20:44:34.155Z,100916.88
2023-05-08T20:47:03.876Z,100918.91
2023-05-08T20:49:34.372Z,100920.09
2023-05-08T20:52:05.857Z,100918.47
2023-05-08T20:54:38.014Z,100912.03
2023-05-08T20:57:08.722Z,100907.56
2023-05-08T20:59:39.244Z,100905.09
2023-05-08T21:02:09.949Z,100905.94
2023-05-08T21:04:40.622Z,100906.28
2023-05-08T21:07:10.734Z,100899.84
2023-05-08T21:09:43.167Z,100900.63
2023-05-08T21:12:13.481Z,100898.22
2023-05-08T21:14:44.615Z,100893.75
2023-05-08T21:17:14.564Z,100898.59
2023-05-08T21:19:44.800Z,100898.94
2023-05-08T21:22:15.173Z,100886.03
2023-05-08T21:24:48.276Z,100890.06
2023-05-08T21:27:18.502Z,100886.41
2023-05-08T21:29:48.820Z,100883.97
2023-05-08T21:32:19.210Z,100892.44
2023-05-08T21:34:49.037Z,100890.81
2023-05-08T21:37:19.104Z,100889.19
2023-05-08T21:39:50.873Z,100887.16
2023-05-08T21:42:21.023Z,100882.75
2023-05-08T21:44:51.034Z,100890.38
2023-05-08T21:47:22.957Z,100888.38
2023-05-08T21:49:52.726Z,100892.75
2023-05-08T21:52:23.848Z,100891.56
2023-05-08T21:54:55.947Z,100887.09
2023-05-08T21:57:26.174Z,100889.13
2023-05-08T21:59:56.604Z,100891.50
2023-05-08T22:02:26.583Z,100883.88
2023-05-08T22:04:57.002Z,100877.41
2023-05-08T22:07:27.457Z,100870.13
2023-05-08T22:10:00.325Z,100869.31
2023-05-08T22:12:30.621Z,100869.31
2023-05-08T22:15:00.886Z,100865.66
2023-05-08T22:17:31.123Z,100860.41
2023-05-08T22:20:01.016Z,100862.03
2023-05-08T22:22:31.481Z,100865.22
2023-05-08T22:25:03.490Z,100868.88
2023-05-08T22:27:33.862Z,100867.25
2023-05-08T22:30:03.757Z,100853.13
2023-05-08T22:32:33.934Z,100854.31
2023-05-08T22:35:03.933Z,100849.50
2023-05-08T22:37:34.057Z,100847.03
2023-05-08T22:40:05.910Z,100848.22
2023-05-08T22:42:36.680Z,100842.19
2023-05-08T22:45:07.804Z,100836.88
2023-05-08T22:47:38.440Z,100838.91
2023-05-08T22:50:10.086Z,100841.72
2023-05-08T22:52:41.373Z,100841.72
2023-05-08T22:55:15.941Z,100843.72
2023-05-08T22:57:46.270Z,100837.63
2023-05-08T23:00:18.245Z,100840.47
2023-05-08T23:02:48.614Z,100835.22
2023-05-08T23:05:18.801Z,100831.19
2023-05-08T23:07:48.927Z,100825.56
2023-05-08T23:10:20.830Z,100826.75
2023-05-08T23:12:50.947Z,100819.47
2023-05-08T23:15:21.709Z,100820.28
2023-05-08T23:17:52.424Z,100807.38
2023-05-08T23:20:22.929Z,100818.66
2023-05-08T23:22:52.997Z,100807.72
2023-05-08T23:25:24.921Z,100818.66
2023-05-08T23:27:55.247Z,100814.22
2023-05-08T23:30:25.626Z,100817.81
2023-05-08T23:32:55.569Z,100811.00
2023-05-08T23:35:25.915Z,100813.81
2023-05-08T23:37:56.214Z,100818.66
2023-05-08T23:40:28.590Z,100819.09
2023-05-08T23:42:58.474Z,100810.63
2023-05-08T23:45:28.777Z,100810.63
2023-05-08T23:47:58.882Z,100805.00
2023-05-08T23:50:29.235Z,100805.78
2023-05-08T23:52:59.416Z,100806.59
2023-05-08T23:55:31.917Z,100809.41
2023-05-08T23:58:02.306Z,100809.41
